Buoy 55955

sailwx.info

Track history (hours):
 
Tides and Currents Weather Stations Pressure Air Temp Water Temp Dewpoint Dewpoint Depression Visibility Wind Speed Wind Dir Waves Ship Positions

Drifting buoy 55955

Last reported at 2018-Jul-10 20:00 UTC. Time now 2018-Jul-15 19:07 UTC.
Position S 08°59' E 143°25'.

Water temperature 23.7 ° C

Date/timePositionNaut miles runAvg speedWind from/ knotsBaromVisibWave heightAir tempDewpointWater temp
2018-Jul-10 20:00S 08°59' E 143°25'0 0.0 23.7
2018-Jul-10 19:00S 08°59' E 143°25'2 1.7 23.7
2018-Jul-10 18:00S 09°00' E 143°26'1 0.6 23.9
2018-Jul-10 17:00S 08°59' E 143°26'1 0.1 24.1
2018-Jul-10 12:00S 08°59' E 143°27'0 0.0 24.7
2018-Jul-10 11:00S 08°59' E 143°27'0 0.0 24.8
2018-Jul-10 10:00S 08°59' E 143°27'0 0.0 24.6
2018-Jul-10 08:00S 08°59' E 143°27'0 0.0 25.0
2018-Jul-10 07:00S 08°59' E 143°27'0 0.0 25.6
2018-Jul-10 06:00S 08°59' E 143°27'0 0.0 27.0
2018-Jul-10 05:00S 08°59' E 143°27'1 0.1 28.1
2018-Jul-10 00:00S 08°59' E 143°28'1 0.6 31.2
2018-Jul-09 23:00S 08°59' E 143°27'1 0.3 25.2
2018-Jul-09 21:00S 08°59' E 143°26'1 0.6 24.1
2018-Jul-09 20:00S 08°59' E 143°27'0 0.0 23.9
2018-Jul-09 19:00S 08°59' E 143°27'0 0.0 23.8
2018-Jul-09 18:00S 08°59' E 143°27'0 0.0 24.3
2018-Jul-09 17:00S 08°59' E 143°27'0 0.0 24.4
2018-Jul-09 13:00S 08°59' E 143°27'0 0.0 24.8
2018-Jul-09 12:00S 08°59' E 143°27'0 0.0 24.6
2018-Jul-09 11:00S 08°59' E 143°27'0 0.0 24.9
2018-Jul-09 10:00S 08°59' E 143°27'0 0.0 25.3
2018-Jul-09 09:00S 08°59' E 143°27'1 0.3 25.3
2018-Jul-09 07:00S 08°59' E 143°28'1 0.6 25.2
2018-Jul-09 06:00S 08°59' E 143°27'0 0.0 25.6
2018-Jul-09 05:00S 08°59' E 143°27'0 0.0 25.7
2018-Jul-09 00:00S 08°59' E 143°27'0 0.0 26.2
2018-Jul-08 23:00S 08°59' E 143°27'0 0.0 24.7
2018-Jul-08 22:00S 08°59' E 143°27'0 0.0 24.3
2018-Jul-08 21:00S 08°59' E 143°27'0 0.0 24.6
2018-Jul-08 20:00S 08°59' E 143°27'0 0.0 24.8
2018-Jul-08 19:00S 08°59' E 143°27'0 0.0 24.9
2018-Jul-08 18:00S 08°59' E 143°27'0 0.0 25.1
2018-Jul-08 17:00S 08°59' E 143°27'0 0.0 24.8
2018-Jul-08 12:00S 08°59' E 143°27'0 0.0 25.8
2018-Jul-08 11:00S 08°59' E 143°27'0 0.0 26.1
2018-Jul-08 10:00S 08°59' E 143°27'0 0.0 26.3
2018-Jul-08 07:00S 08°59' E 143°27'0 0.0 28.8
2018-Jul-08 06:00S 08°59' E 143°27'0 0.0 31.8
2018-Jul-08 05:00S 08°59' E 143°27'1 0.1 32.4
2018-Jul-08 00:00S 08°59' E 143°26'1 0.6 34.7
2018-Jul-07 23:00S 08°59' E 143°27'1 0.3 28.1
2018-Jul-07 21:00S 08°59' E 143°26'1 0.6 24.2
2018-Jul-07 20:00S 08°59' E 143°27'0 0.0 24.3
2018-Jul-07 19:00S 08°59' E 143°27'0 0.0 24.3
2018-Jul-07 18:00S 08°59' E 143°27'0 0.0 24.2
2018-Jul-07 17:00S 08°59' E 143°27'0 0.0 24.4
2018-Jul-07 12:00S 08°59' E 143°27'0 0.0 25.2
2018-Jul-07 11:00S 08°59' E 143°27'0 0.0 25.9
2018-Jul-07 09:00S 08°59' E 143°27'0 0.0 25.9
2018-Jul-07 08:00S 08°59' E 143°27'0 0.0 26.7
2018-Jul-07 06:00S 08°59' E 143°27'0 0.0 29.9
2018-Jul-07 05:00S 08°59' E 143°27'0 0.0 31.5
2018-Jul-07 00:00S 08°59' E 143°27'0 0.0 27.2
2018-Jul-06 23:00S 08°59' E 143°27'0 0.0 25.9
2018-Jul-06 22:00S 08°59' E 143°27'0 0.0 25.2
2018-Jul-06 21:00S 08°59' E 143°27'0 0.0 25.2
2018-Jul-06 19:00S 08°59' E 143°27'0 0.0 25.3
2018-Jul-06 18:00S 08°59' E 143°27'0 0.0 25.5
2018-Jul-06 17:00S 08°59' E 143°27'0 0.0 25.2
2018-Jul-06 12:00S 08°59' E 143°27'1 0.6 25.7
2018-Jul-06 11:00S 09°00' E 143°27'1 0.8 26.1
2018-Jul-06 10:00S 08°59' E 143°26'1 0.2 26.4
2018-Jul-06 07:00S 08°59' E 143°27'0 0.0 27.9
2018-Jul-06 06:00S 08°59' E 143°27'0 0.0 29.0
2018-Jul-06 05:00S 08°59' E 143°27'0 0.0 30.9
2018-Jul-06 00:00S 08°59' E 143°27'0 0.0 30.7
2018-Jul-05 23:00S 08°59' E 143°27'0 0.0 28.6
2018-Jul-05 22:00S 08°59' E 143°27'0 0.0 26.0
2018-Jul-05 21:00S 08°59' E 143°27'0 0.0 25.4
2018-Jul-05 20:00S 08°59' E 143°27'0 0.0 25.4
2018-Jul-05 19:00S 08°59' E 143°27'0 0.0 25.3
2018-Jul-05 18:00S 08°59' E 143°27'0 0.0 25.4
2018-Jul-05 17:00S 08°59' E 143°27'0 0.0 25.5
2018-Jul-05 12:00S 08°59' E 143°27'0 0.0 25.7
2018-Jul-05 11:00S 08°59' E 143°27'0 0.0 26.0
2018-Jul-05 09:00S 08°59' E 143°27'0 0.0 26.5
2018-Jul-05 07:00S 08°59' E 143°27'0 0.0 28.3
2018-Jul-05 06:00S 08°59' E 143°27'1 0.6 29.8
2018-Jul-05 05:00S 08°59' E 143°28'1 0.1 31.3
2018-Jul-05 00:00S 08°59' E 143°27'0 0.0 28.4
2018-Jul-04 23:00S 08°59' E 143°27'1 0.6 27.1
2018-Jul-04 22:00S 08°59' E 143°26'1 0.1 25.6
2018-Jul-04 18:00S 08°59' E 143°27'0 0.0 24.7
2018-Jul-04 17:00S 08°59' E 143°27'0 0.0 24.7
2018-Jul-04 12:00S 08°59' E 143°27'0 0.0 24.6
2018-Jul-04 11:00S 08°59' E 143°27'0 0.0 24.7
2018-Jul-04 10:00S 08°59' E 143°27'0 0.0 25.0
2018-Jul-04 08:00S 08°59' E 143°27'0 0.0 26.3
2018-Jul-04 07:00S 08°59' E 143°27'0 0.0 28.3
2018-Jul-04 06:00S 08°59' E 143°27'0 0.0 29.6
2018-Jul-04 00:00S 08°59' E 143°27'0 0.0 27.7
2018-Jul-03 23:00S 08°59' E 143°27'0 0.0 26.8
2018-Jul-03 22:00S 08°59' E 143°27'0 0.0 25.6
2018-Jul-03 21:00S 08°59' E 143°27'0 0.0 25.1
2018-Jul-03 20:00S 08°59' E 143°27'0 0.0 25.1
2018-Jul-03 19:00S 08°59' E 143°27'0 0.0 25.2
2018-Jul-03 18:00S 08°59' E 143°27'0 0.0 25.1
2018-Jul-03 17:00S 08°59' E 143°27'0 0.0 25.2
2018-Jul-03 11:00S 08°59' E 143°27'0 0.0 25.1
2018-Jul-03 10:00S 08°59' E 143°27'1 0.6 25.4
2018-Jul-03 09:00S 08°59' E 143°26'1 0.6 25.8
2018-Jul-03 08:00S 08°59' E 143°27'0 0.0 26.7
2018-Jul-03 07:00S 08°59' E 143°27'0 0.0 28.4
2018-Jul-03 06:00S 08°59' E 143°27'0 0.0 30.7
2018-Jul-03 00:00S 08°59' E 143°27'0 0.0 26.8
2018-Jul-02 23:00S 08°59' E 143°27'0 0.0 26.3
2018-Jul-02 22:00S 08°59' E 143°27'0 0.0 25.2
2018-Jul-02 21:00S 08°59' E 143°27'1 0.6 25.0
2018-Jul-02 20:00S 09°00' E 143°27'1 0.6 25.2
2018-Jul-02 19:00S 08°59' E 143°27'0 0.0 25.3
2018-Jul-02 18:00S 08°59' E 143°27'0 0.0 25.5
2018-Jul-02 17:00S 08°59' E 143°27'0 0.0 25.5
2018-Jul-02 12:00S 08°59' E 143°27'0 0.0 25.7
2018-Jul-02 11:00S 08°59' E 143°27'0 0.0 25.8
2018-Jul-02 10:00S 08°59' E 143°27'1 0.6 25.9
2018-Jul-02 09:00S 08°59' E 143°28'1 0.3 26.0
2018-Jul-02 07:00S 08°59' E 143°27'1 0.6 27.7
2018-Jul-02 06:00S 09°00' E 143°27'0 0.0 29.3
2018-Jul-02 05:00S 09°00' E 143°27'1 0.6 30.5
2018-Jul-02 04:00S 08°59' E 143°27'0 0.0 34.9
2018-Jul-02 00:00S 08°59' E 143°27'0 0.0 28.4
2018-Jul-01 23:00S 08°59' E 143°27'0 0.0 27.3
2018-Jul-01 22:00S 08°59' E 143°27'0 0.0 26.0
2018-Jul-01 21:00S 08°59' E 143°27'0 0.0 25.7
2018-Jul-01 20:00S 08°59' E 143°27'0 0.0 25.8
2018-Jul-01 18:00S 08°59' E 143°27'0 0.0 25.9
2018-Jul-01 17:00S 08°59' E 143°27'0 0.0 26.1
2018-Jul-01 12:00S 08°59' E 143°27'0 0.0 26.1
2018-Jul-01 11:00S 08°59' E 143°27'0 0.0 26.0
2018-Jul-01 10:00S 08°59' E 143°27'1 0.4 26.1
2018-Jul-01 08:00S 09°00' E 143°28'1 0.8 26.9
2018-Jul-01 07:00S 08°59' E 143°27'0 0.0 27.9
2018-Jul-01 06:00S 08°59' E 143°27'0 0.0 29.0
2018-Jul-01 05:00S 08°59' E 143°27'0 0.0 29.8
2018-Jul-01 00:00S 08°59' E 143°27'0 0.0 31.1
2018-Jun-30 23:00S 08°59' E 143°27'0 0.0 28.5
2018-Jun-30 22:00S 08°59' E 143°27'0 0.0 26.5
2018-Jun-30 21:00S 08°59' E 143°27'   26.1
Track history (hours):
 
Tides and Currents Weather Stations Pressure Air Temp Water Temp Dewpoint Dewpoint Depression Visibility Wind Speed Wind Dir Waves Ship Positions

Drifting buoy 55955

Last reported at 2018-Jul-10 20:00 UTC. Time now 2018-Jul-15 19:07 UTC.
Position S 08°59' E 143°25'.

Water temperature 23.7 ° C

Date/timePositionNaut miles runAvg speedWind from/ knotsBaromVisibWave heightAir tempDewpointWater temp
2018-Jul-10 20:00S 08°59' E 143°25'0 0.0 23.7
2018-Jul-10 19:00S 08°59' E 143°25'2 1.7 23.7
2018-Jul-10 18:00S 09°00' E 143°26'1 0.6 23.9
2018-Jul-10 17:00S 08°59' E 143°26'1 0.1 24.1
2018-Jul-10 12:00S 08°59' E 143°27'0 0.0 24.7
2018-Jul-10 11:00S 08°59' E 143°27'0 0.0 24.8
2018-Jul-10 10:00S 08°59' E 143°27'0 0.0 24.6
2018-Jul-10 08:00S 08°59' E 143°27'0 0.0 25.0
2018-Jul-10 07:00S 08°59' E 143°27'0 0.0 25.6
2018-Jul-10 06:00S 08°59' E 143°27'0 0.0 27.0
2018-Jul-10 05:00S 08°59' E 143°27'1 0.1 28.1
2018-Jul-10 00:00S 08°59' E 143°28'1 0.6 31.2
2018-Jul-09 23:00S 08°59' E 143°27'1 0.3 25.2
2018-Jul-09 21:00S 08°59' E 143°26'1 0.6 24.1
2018-Jul-09 20:00S 08°59' E 143°27'0 0.0 23.9
2018-Jul-09 19:00S 08°59' E 143°27'0 0.0 23.8
2018-Jul-09 18:00S 08°59' E 143°27'0 0.0 24.3
2018-Jul-09 17:00S 08°59' E 143°27'0 0.0 24.4
2018-Jul-09 13:00S 08°59' E 143°27'0 0.0 24.8
2018-Jul-09 12:00S 08°59' E 143°27'0 0.0 24.6
2018-Jul-09 11:00S 08°59' E 143°27'0 0.0 24.9
2018-Jul-09 10:00S 08°59' E 143°27'0 0.0 25.3
2018-Jul-09 09:00S 08°59' E 143°27'1 0.3 25.3
2018-Jul-09 07:00S 08°59' E 143°28'1 0.6 25.2
2018-Jul-09 06:00S 08°59' E 143°27'0 0.0 25.6
2018-Jul-09 05:00S 08°59' E 143°27'0 0.0 25.7
2018-Jul-09 00:00S 08°59' E 143°27'0 0.0 26.2
2018-Jul-08 23:00S 08°59' E 143°27'0 0.0 24.7
2018-Jul-08 22:00S 08°59' E 143°27'0 0.0 24.3
2018-Jul-08 21:00S 08°59' E 143°27'0 0.0 24.6
2018-Jul-08 20:00S 08°59' E 143°27'0 0.0 24.8
2018-Jul-08 19:00S 08°59' E 143°27'0 0.0 24.9
2018-Jul-08 18:00S 08°59' E 143°27'0 0.0 25.1
2018-Jul-08 17:00S 08°59' E 143°27'0 0.0 24.8
2018-Jul-08 12:00S 08°59' E 143°27'0 0.0 25.8
2018-Jul-08 11:00S 08°59' E 143°27'0 0.0 26.1
2018-Jul-08 10:00S 08°59' E 143°27'0 0.0 26.3
2018-Jul-08 07:00S 08°59' E 143°27'0 0.0 28.8
2018-Jul-08 06:00S 08°59' E 143°27'0 0.0 31.8
2018-Jul-08 05:00S 08°59' E 143°27'1 0.1 32.4
2018-Jul-08 00:00S 08°59' E 143°26'1 0.6 34.7
2018-Jul-07 23:00S 08°59' E 143°27'1 0.3 28.1
2018-Jul-07 21:00S 08°59' E 143°26'1 0.6 24.2
2018-Jul-07 20:00S 08°59' E 143°27'0 0.0 24.3
2018-Jul-07 19:00S 08°59' E 143°27'0 0.0 24.3
2018-Jul-07 18:00S 08°59' E 143°27'0 0.0 24.2
2018-Jul-07 17:00S 08°59' E 143°27'0 0.0 24.4
2018-Jul-07 12:00S 08°59' E 143°27'0 0.0 25.2
2018-Jul-07 11:00S 08°59' E 143°27'0 0.0 25.9
2018-Jul-07 09:00S 08°59' E 143°27'0 0.0 25.9
2018-Jul-07 08:00S 08°59' E 143°27'0 0.0 26.7
2018-Jul-07 06:00S 08°59' E 143°27'0 0.0 29.9
2018-Jul-07 05:00S 08°59' E 143°27'0 0.0 31.5
2018-Jul-07 00:00S 08°59' E 143°27'0 0.0 27.2
2018-Jul-06 23:00S 08°59' E 143°27'0 0.0 25.9
2018-Jul-06 22:00S 08°59' E 143°27'0 0.0 25.2
2018-Jul-06 21:00S 08°59' E 143°27'0 0.0 25.2
2018-Jul-06 19:00S 08°59' E 143°27'0 0.0 25.3
2018-Jul-06 18:00S 08°59' E 143°27'0 0.0 25.5
2018-Jul-06 17:00S 08°59' E 143°27'0 0.0 25.2
2018-Jul-06 12:00S 08°59' E 143°27'1 0.6 25.7
2018-Jul-06 11:00S 09°00' E 143°27'1 0.8 26.1
2018-Jul-06 10:00S 08°59' E 143°26'1 0.2 26.4
2018-Jul-06 07:00S 08°59' E 143°27'0 0.0 27.9
2018-Jul-06 06:00S 08°59' E 143°27'0 0.0 29.0
2018-Jul-06 05:00S 08°59' E 143°27'0 0.0 30.9
2018-Jul-06 00:00S 08°59' E 143°27'0 0.0 30.7
2018-Jul-05 23:00S 08°59' E 143°27'0 0.0 28.6
2018-Jul-05 22:00S 08°59' E 143°27'0 0.0 26.0
2018-Jul-05 21:00S 08°59' E 143°27'0 0.0 25.4
2018-Jul-05 20:00S 08°59' E 143°27'0 0.0 25.4
2018-Jul-05 19:00S 08°59' E 143°27'0 0.0 25.3
2018-Jul-05 18:00S 08°59' E 143°27'0 0.0 25.4
2018-Jul-05 17:00S 08°59' E 143°27'0 0.0 25.5
2018-Jul-05 12:00S 08°59' E 143°27'0 0.0 25.7
2018-Jul-05 11:00S 08°59' E 143°27'0 0.0 26.0
2018-Jul-05 09:00S 08°59' E 143°27'0 0.0 26.5
2018-Jul-05 07:00S 08°59' E 143°27'0 0.0 28.3
2018-Jul-05 06:00S 08°59' E 143°27'1 0.6 29.8
2018-Jul-05 05:00S 08°59' E 143°28'1 0.1 31.3
2018-Jul-05 00:00S 08°59' E 143°27'0 0.0 28.4
2018-Jul-04 23:00S 08°59' E 143°27'1 0.6 27.1
2018-Jul-04 22:00S 08°59' E 143°26'1 0.1 25.6
2018-Jul-04 18:00S 08°59' E 143°27'0 0.0 24.7
2018-Jul-04 17:00S 08°59' E 143°27'0 0.0 24.7
2018-Jul-04 12:00S 08°59' E 143°27'0 0.0 24.6
2018-Jul-04 11:00S 08°59' E 143°27'0 0.0 24.7
2018-Jul-04 10:00S 08°59' E 143°27'0 0.0 25.0
2018-Jul-04 08:00S 08°59' E 143°27'0 0.0 26.3
2018-Jul-04 07:00S 08°59' E 143°27'0 0.0 28.3
2018-Jul-04 06:00S 08°59' E 143°27'0 0.0 29.6
2018-Jul-04 00:00S 08°59' E 143°27'0 0.0 27.7
2018-Jul-03 23:00S 08°59' E 143°27'0 0.0 26.8
2018-Jul-03 22:00S 08°59' E 143°27'0 0.0 25.6
2018-Jul-03 21:00S 08°59' E 143°27'0 0.0 25.1
2018-Jul-03 20:00S 08°59' E 143°27'0 0.0 25.1
2018-Jul-03 19:00S 08°59' E 143°27'0 0.0 25.2
2018-Jul-03 18:00S 08°59' E 143°27'0 0.0 25.1
2018-Jul-03 17:00S 08°59' E 143°27'0 0.0 25.2
2018-Jul-03 11:00S 08°59' E 143°27'0 0.0 25.1
2018-Jul-03 10:00S 08°59' E 143°27'1 0.6 25.4
2018-Jul-03 09:00S 08°59' E 143°26'1 0.6 25.8
2018-Jul-03 08:00S 08°59' E 143°27'0 0.0 26.7
2018-Jul-03 07:00S 08°59' E 143°27'0 0.0 28.4
2018-Jul-03 06:00S 08°59' E 143°27'0 0.0 30.7
2018-Jul-03 00:00S 08°59' E 143°27'0 0.0 26.8
2018-Jul-02 23:00S 08°59' E 143°27'0 0.0 26.3
2018-Jul-02 22:00S 08°59' E 143°27'0 0.0 25.2
2018-Jul-02 21:00S 08°59' E 143°27'1 0.6 25.0
2018-Jul-02 20:00S 09°00' E 143°27'1 0.6 25.2
2018-Jul-02 19:00S 08°59' E 143°27'0 0.0 25.3
2018-Jul-02 18:00S 08°59' E 143°27'0 0.0 25.5
2018-Jul-02 17:00S 08°59' E 143°27'0 0.0 25.5
2018-Jul-02 12:00S 08°59' E 143°27'0 0.0 25.7
2018-Jul-02 11:00S 08°59' E 143°27'0 0.0 25.8
2018-Jul-02 10:00S 08°59' E 143°27'1 0.6 25.9
2018-Jul-02 09:00S 08°59' E 143°28'1 0.3 26.0
2018-Jul-02 07:00S 08°59' E 143°27'1 0.6 27.7
2018-Jul-02 06:00S 09°00' E 143°27'0 0.0 29.3
2018-Jul-02 05:00S 09°00' E 143°27'1 0.6 30.5
2018-Jul-02 04:00S 08°59' E 143°27'0 0.0 34.9
2018-Jul-02 00:00S 08°59' E 143°27'0 0.0 28.4
2018-Jul-01 23:00S 08°59' E 143°27'0 0.0 27.3
2018-Jul-01 22:00S 08°59' E 143°27'0 0.0 26.0
2018-Jul-01 21:00S 08°59' E 143°27'0 0.0 25.7
2018-Jul-01 20:00S 08°59' E 143°27'0 0.0 25.8
2018-Jul-01 18:00S 08°59' E 143°27'0 0.0 25.9
2018-Jul-01 17:00S 08°59' E 143°27'0 0.0 26.1
2018-Jul-01 12:00S 08°59' E 143°27'0 0.0 26.1
2018-Jul-01 11:00S 08°59' E 143°27'0 0.0 26.0
2018-Jul-01 10:00S 08°59' E 143°27'1 0.4 26.1
2018-Jul-01 08:00S 09°00' E 143°28'1 0.8 26.9
2018-Jul-01 07:00S 08°59' E 143°27'0 0.0 27.9
2018-Jul-01 06:00S 08°59' E 143°27'0 0.0 29.0
2018-Jul-01 05:00S 08°59' E 143°27'0 0.0 29.8
2018-Jul-01 00:00S 08°59' E 143°27'0 0.0 31.1
2018-Jun-30 23:00S 08°59' E 143°27'0 0.0 28.5
2018-Jun-30 22:00S 08°59' E 143°27'0 0.0 26.5
2018-Jun-30 21:00S 08°59' E 143°27'   26.1

Dump ship's entire track history